St. Thomas, Canada
Current Conditions -  °F | °C
As of 1:22 AM on Tuesday 21 Oct 2014 (Local Time) from CYXU Reporting Station
Haze Haze  
Wind Chill: 50°   Ceiling: 600
Heat Index: 50°   Visibility: 4mi
Dew Point: 48°   Wind: 6mph
Humidity: 94%   Direction: 330°NNW
Pressure: 29.81"   Gusts: NA
Location:  42.78°N, 81.19°W
Report Text: CYXU 210522Z 33005KT 4SM BR BKN006 OVC013 10/09 A2981 RMK SF6SC2 CIG RAG SLP099
Loading
Personal Weather Stations






























Interactive Weather Map
Tropical Storm Tracking
New forecast layout! Learn more

10-Day Weather Forecast

Advertisements
Track Severe Weather on mobile